logo
Rechercher aéroport 
image banner adimage banner adimage banner ad
image banner ad

FAPV - Petrusville

Situé à Petrusville, South Africa

ICAO - FAPV, IATA -

Données fournies par Airmate  

Information générale

Coordonnées: S30°4'55" E24°40'48"
Élévation : 4005 feet MSL.
 
Voir autres Aéroports à Northern Cape

Données opérationnelles

Special qualification required
Heure actuelle UTC:
Heure actuelle locale:
Météo à : - ( 0 km )
METAR: UAII 251627Z 32008MPS 9999 SCT050CB 16/05 Q1019 NOSIG RMK QFE729/0972
Voir NOTAMs / SUP AIP / TFR affectant cet aéroport [VIEW]
Fréquences de communication: [VIEW]

Pistes:

Identifiant RWYQFULongueur (ft)Largeur (ft)SurfaceLDA (ft)
18172°459372SAND
36352°459372SAND
12104°360982SAND
30284°360982SAND

Coordonnées de l'aéroport

Adresse: Petrusville South Africa

Vue satellite de FAPV